createdAt,value
2022-08-17T00:03:13.666Z,21.16
2022-08-17T00:08:21.602Z,21.09
2022-08-17T00:13:29.493Z,20.94
2022-08-17T00:18:53.754Z,20.85
2022-08-17T00:23:58.216Z,20.84
2022-08-17T00:29:01.237Z,20.69
2022-08-17T00:34:05.158Z,20.59
2022-08-17T00:39:09.560Z,20.60
2022-08-17T00:44:12.888Z,20.57
2022-08-17T00:49:19.603Z,20.48
2022-08-17T00:54:28.184Z,20.39
2022-08-17T00:59:38.440Z,20.32
2022-08-17T01:04:43.076Z,20.26
2022-08-17T01:09:47.564Z,20.22
2022-08-17T01:14:50.594Z,20.12
2022-08-17T01:19:53.622Z,20.14
2022-08-17T01:25:01.769Z,19.95
2022-08-17T01:30:58.596Z,19.93
2022-08-17T01:35:31.987Z,19.77
2022-08-17T01:40:39.606Z,19.65
2022-08-17T01:45:47.655Z,19.59
2022-08-17T01:50:52.985Z,19.59
2022-08-17T01:56:01.251Z,19.49
2022-08-17T02:01:05.640Z,19.33
2022-08-17T02:06:27.125Z,19.34
2022-08-17T02:11:33.955Z,19.22
2022-08-17T02:16:39.074Z,19.09
2022-08-17T02:21:44.062Z,19.06
2022-08-17T02:26:49.947Z,19.00
2022-08-17T02:31:53.029Z,18.92
2022-08-17T02:36:56.113Z,18.77
2022-08-17T02:42:04.103Z,18.73
2022-08-17T02:47:07.716Z,18.64
2022-08-17T02:52:10.730Z,18.57
2022-08-17T02:57:15.243Z,18.50
2022-08-17T03:02:18.236Z,18.27
2022-08-17T03:07:21.690Z,18.29
2022-08-17T03:12:29.344Z,18.27
2022-08-17T03:17:32.356Z,18.20
2022-08-17T03:22:38.438Z,18.16
2022-08-17T03:27:42.967Z,18.11
2022-08-17T03:32:53.245Z,18.01
2022-08-17T03:38:00.067Z,18.02
2022-08-17T03:43:10.742Z,17.95
2022-08-17T03:48:31.002Z,17.89
2022-08-17T03:53:51.321Z,17.83
2022-08-17T03:58:55.893Z,17.78
2022-08-17T04:03:58.906Z,17.85
2022-08-17T04:09:01.915Z,17.77
2022-08-17T04:14:07.069Z,17.66
2022-08-17T04:19:10.068Z,17.68
2022-08-17T04:24:13.056Z,17.68
2022-08-17T04:29:17.987Z,17.81
2022-08-17T04:34:21.187Z,17.97
2022-08-17T04:39:26.208Z,19.22
2022-08-17T04:44:37.785Z,19.63
2022-08-17T04:49:41.067Z,18.84
2022-08-17T04:54:44.060Z,18.82
2022-08-17T04:59:48.412Z,19.06
2022-08-17T05:04:51.381Z,18.96
2022-08-17T05:09:54.358Z,19.26
2022-08-17T05:14:58.742Z,19.45
2022-08-17T05:20:01.708Z,19.39
2022-08-17T05:25:05.110Z,19.77
2022-08-17T05:30:10.417Z,19.72
2022-08-17T05:35:13.395Z,20.16
2022-08-17T05:40:17.097Z,20.39
2022-08-17T05:45:55.306Z,20.09
2022-08-17T05:50:51.146Z,20.17
2022-08-17T05:56:04.433Z,20.67
2022-08-17T06:01:15.663Z,21.18
2022-08-17T06:06:31.328Z,22.28
2022-08-17T06:11:40.083Z,22.15
2022-08-17T06:16:47.847Z,22.92
2022-08-17T06:21:53.873Z,23.06
2022-08-17T06:27:00.437Z,23.68
2022-08-17T06:32:06.067Z,24.07
2022-08-17T06:37:21.397Z,24.48
2022-08-17T06:43:02.717Z,24.91
2022-08-17T06:48:03.853Z,24.23
2022-08-17T06:53:17.699Z,25.14
2022-08-17T06:58:23.100Z,25.58
2022-08-17T07:03:38.024Z,26.15
2022-08-17T07:08:52.426Z,26.44
2022-08-17T07:14:16.659Z,26.57
2022-08-17T07:19:24.876Z,26.98
2022-08-17T07:24:35.687Z,26.80
2022-08-17T07:29:46.462Z,27.56
2022-08-17T07:35:15.426Z,27.98
2022-08-17T07:40:37.780Z,27.53
2022-08-17T07:46:18.605Z,27.85
2022-08-17T07:51:27.375Z,28.61
2022-08-17T07:56:40.450Z,28.62
2022-08-17T08:01:47.497Z,27.86
2022-08-17T08:07:01.471Z,28.02
2022-08-17T08:12:25.155Z,27.62
2022-08-17T08:17:46.545Z,28.13
2022-08-17T08:23:00.165Z,27.60
2022-08-17T08:28:14.703Z,26.88
2022-08-17T08:33:36.054Z,27.43
2022-08-17T08:38:49.192Z,27.54
2022-08-17T08:44:03.696Z,27.58
2022-08-17T08:50:03.337Z,27.40
2022-08-17T08:55:17.101Z,29.02
2022-08-17T09:00:22.584Z,28.52
2022-08-17T09:05:39.309Z,29.83
2022-08-17T09:11:03.219Z,28.94
2022-08-17T09:16:11.596Z,29.63
2022-08-17T09:21:20.982Z,28.54
2022-08-17T09:26:32.773Z,29.67
2022-08-17T09:31:46.398Z,31.19
2022-08-17T09:37:06.948Z,30.14
2022-08-17T09:42:15.928Z,30.68
2022-08-17T09:47:30.601Z,30.09
2022-08-17T09:52:34.108Z,30.58
2022-08-17T09:57:52.382Z,31.40
2022-08-17T10:03:21.172Z,30.02
2022-08-17T10:08:33.900Z,30.29
2022-08-17T10:13:47.228Z,31.47
2022-08-17T10:19:13.791Z,31.21
2022-08-17T10:24:39.157Z,30.72
2022-08-17T10:29:49.749Z,31.22
2022-08-17T10:35:40.435Z,32.53
2022-08-17T10:40:50.908Z,32.98
2022-08-17T10:46:29.889Z,33.15
2022-08-17T10:51:38.940Z,32.66
2022-08-17T10:56:46.914Z,32.07
2022-08-17T11:02:08.667Z,29.70
2022-08-17T11:07:25.742Z,30.36
2022-08-17T11:12:39.193Z,30.48
2022-08-17T11:18:12.255Z,30.79
2022-08-17T11:23:34.833Z,31.69
2022-08-17T11:28:48.889Z,31.84
2022-08-17T11:34:02.188Z,31.72
2022-08-17T11:39:15.785Z,32.14
2022-08-17T11:44:40.499Z,31.70
2022-08-17T11:50:18.984Z,31.20
2022-08-17T11:55:59.415Z,30.95
2022-08-17T12:01:02.892Z,31.03
2022-08-17T12:06:17.626Z,31.73
2022-08-17T12:11:58.589Z,31.10
2022-08-17T12:17:05.630Z,31.11
2022-08-17T12:22:17.503Z,32.12
2022-08-17T12:28:04.656Z,32.90
2022-08-17T12:32:48.965Z,31.95
2022-08-17T12:37:53.555Z,32.32
2022-08-17T12:42:59.006Z,31.83
2022-08-17T12:48:04.185Z,32.08
2022-08-17T12:53:15.826Z,32.30
2022-08-17T12:58:22.650Z,33.01
2022-08-17T13:03:36.354Z,32.30
2022-08-17T13:08:44.023Z,31.80
2022-08-17T13:13:50.773Z,32.56
2022-08-17T13:18:55.907Z,32.77
2022-08-17T13:24:03.264Z,32.93
2022-08-17T13:29:08.132Z,32.46
2022-08-17T13:34:16.415Z,32.56
2022-08-17T13:39:25.922Z,31.88
2022-08-17T13:44:34.650Z,31.54
2022-08-17T13:49:48.481Z,31.90
2022-08-17T13:54:55.665Z,31.65
2022-08-17T14:00:11.053Z,31.78
2022-08-17T14:05:14.054Z,31.80
2022-08-17T14:10:19.171Z,32.01
2022-08-17T14:15:24.820Z,31.86
2022-08-17T14:20:47.866Z,32.01
2022-08-17T14:25:52.233Z,31.79
2022-08-17T14:30:55.517Z,31.52
2022-08-17T14:35:58.759Z,31.76
2022-08-17T14:41:03.825Z,31.67
2022-08-17T14:46:07.143Z,31.28
2022-08-17T14:51:10.148Z,31.19
2022-08-17T14:56:14.513Z,30.94
2022-08-17T15:01:17.607Z,31.11
2022-08-17T15:06:22.287Z,30.79
2022-08-17T15:11:27.029Z,30.81
2022-08-17T15:16:30.333Z,31.12
2022-08-17T15:21:33.847Z,31.35
2022-08-17T15:26:39.140Z,31.59
2022-08-17T15:31:42.239Z,31.75
2022-08-17T15:36:49.512Z,31.58
2022-08-17T15:41:58.442Z,31.73
2022-08-17T15:47:01.875Z,31.60
2022-08-17T15:52:16.613Z,31.51
2022-08-17T15:57:21.820Z,31.59
2022-08-17T16:03:14.979Z,31.83
2022-08-17T16:07:50.670Z,31.84
2022-08-17T16:12:55.545Z,31.28
2022-08-17T16:17:58.613Z,31.27
2022-08-17T16:23:03.102Z,31.31
2022-08-17T16:28:08.198Z,30.83
2022-08-17T16:33:12.436Z,30.47
2022-08-17T16:38:15.438Z,30.09
2022-08-17T16:43:20.205Z,30.26
2022-08-17T16:48:23.849Z,30.20
2022-08-17T16:53:26.861Z,29.99
2022-08-17T16:58:31.249Z,29.88
2022-08-17T17:03:35.661Z,29.52
2022-08-17T17:08:46.748Z,29.54
2022-08-17T17:13:56.563Z,29.34
2022-08-17T17:19:10.733Z,29.22
2022-08-17T17:24:18.207Z,29.03
2022-08-17T17:29:48.185Z,28.82
2022-08-17T17:34:58.793Z,28.62
2022-08-17T17:40:09.522Z,28.37
2022-08-17T17:45:25.926Z,28.28
2022-08-17T17:50:35.912Z,28.07
2022-08-17T17:55:47.594Z,27.81
2022-08-17T18:01:03.413Z,27.69
2022-08-17T18:06:21.170Z,27.56
2022-08-17T18:12:03.812Z,27.38
2022-08-17T18:17:09.176Z,27.23
2022-08-17T18:22:17.732Z,27.02
2022-08-17T18:27:24.948Z,27.01
2022-08-17T18:32:41.485Z,26.81
2022-08-17T18:37:47.343Z,26.54
2022-08-17T18:43:00.431Z,26.39
2022-08-17T18:48:06.527Z,26.22
2022-08-17T18:53:35.520Z,26.13
2022-08-17T18:58:38.786Z,25.91
2022-08-17T19:03:46.500Z,25.82
2022-08-17T19:08:49.650Z,25.72
2022-08-17T19:13:55.820Z,25.55
2022-08-17T19:19:06.520Z,25.40
2022-08-17T19:24:19.357Z,25.29
2022-08-17T19:29:27.674Z,25.21
2022-08-17T19:34:35.539Z,25.09
2022-08-17T19:39:48.174Z,24.81
2022-08-17T19:44:59.959Z,24.65
2022-08-17T19:50:13.286Z,24.54
2022-08-17T19:55:24.061Z,24.47
2022-08-17T20:00:27.456Z,24.34
2022-08-17T20:06:08.677Z,24.06
2022-08-17T20:11:06.065Z,23.93
2022-08-17T20:16:10.178Z,23.83
2022-08-17T20:21:20.640Z,23.55
2022-08-17T20:26:28.804Z,23.46
2022-08-17T20:31:45.645Z,23.46
2022-08-17T20:37:01.606Z,23.36
2022-08-17T20:42:10.204Z,22.77
2022-08-17T20:47:25.003Z,23.01
2022-08-17T20:52:51.909Z,22.87
2022-08-17T20:57:55.097Z,22.79
2022-08-17T21:03:48.011Z,22.85
2022-08-17T21:08:59.011Z,22.76
2022-08-17T21:14:09.160Z,22.62
2022-08-17T21:19:31.204Z,22.37
2022-08-17T21:25:02.536Z,22.24
2022-08-17T21:30:44.712Z,22.24
2022-08-17T21:35:51.272Z,22.27
2022-08-17T21:40:55.784Z,22.10
2022-08-17T21:46:04.856Z,21.64
2022-08-17T21:51:12.272Z,21.79
2022-08-17T21:56:25.230Z,21.83
2022-08-17T22:01:31.294Z,21.66
2022-08-17T22:06:38.061Z,21.62
2022-08-17T22:11:55.971Z,21.63
2022-08-17T22:17:10.922Z,21.50
2022-08-17T22:22:30.584Z,21.36
2022-08-17T22:27:50.439Z,21.32
2022-08-17T22:32:53.570Z,21.16
2022-08-17T22:37:57.156Z,20.99
2022-08-17T22:43:03.350Z,21.08
2022-08-17T22:48:06.692Z,20.91
2022-08-17T22:53:36.143Z,20.90
2022-08-17T22:59:08.501Z,20.73
2022-08-17T23:04:16.119Z,20.71
2022-08-17T23:09:19.155Z,20.65
2022-08-17T23:14:23.534Z,20.51
2022-08-17T23:19:27.483Z,20.36
2022-08-17T23:24:33.100Z,20.35
2022-08-17T23:29:41.412Z,20.22
2022-08-17T23:34:48.102Z,19.96
2022-08-17T23:39:51.206Z,20.21
2022-08-17T23:44:55.899Z,20.17
2022-08-17T23:49:58.858Z,19.92
2022-08-17T23:55:06.617Z,19.99
